Time;durP1;ratioP1;P1;durP2;ratioP2;P2;SDS_P1;SDS_P2;PMS_P1;PMS_P2;Temp;Humidity;BMP_temperature;BMP_pressure;BME280_temperature;BME280_humidity;BME280_pressure;Samples;Min_cycle;Max_cycle;Signal;HPM_P1;HPM_P2
2022/09/09 05:05:54;;;;;;;;;4.67;1.33;;;;;21.46;52.86;100686.47;5077783;27;45908;-70
2022/09/09 05:08:20;;;;;;;;;1.33;1.33;;;;;21.56;52.80;100688.25;5059031;27;45567;-71
2022/09/09 05:10:45;;;;;;;;;3.00;2.00;;;;;21.73;52.28;100691.13;5056011;28;45606;-71
2022/09/09 05:13:11;;;;;;;;;3.33;2.00;;;;;21.91;52.18;100689.19;5058317;28;50612;-71
2022/09/09 05:15:36;;;;;;;;;2.67;1.33;;;;;22.16;52.51;100686.66;5055620;28;45948;-71
2022/09/09 05:18:02;;;;;;;;;1.67;1.67;;;;;22.42;51.81;100685.75;5064426;28;45519;-71
2022/09/09 05:20:28;;;;;;;;;1.67;1.67;;;;;22.71;51.78;100680.97;5068686;28;45336;-71
2022/09/09 05:22:54;;;;;;;;;2.33;1.33;;;;;22.99;51.32;100675.28;5067266;28;45403;-70
2022/09/09 05:25:20;;;;;;;;;3.67;2.00;;;;;23.28;51.03;100680.25;5061516;28;46344;-71
2022/09/09 05:27:45;;;;;;;;;2.00;2.00;;;;;23.56;50.87;100679.09;5066292;28;45573;-71
2022/09/09 05:30:11;;;;;;;;;5.00;2.00;;;;;23.80;50.00;100689.03;5059666;27;45678;-71
2022/09/09 05:32:36;;;;;;;;;3.00;3.00;;;;;24.04;49.88;100692.72;5057420;27;46665;-72
2022/09/09 05:35:01;;;;;;;;;3.00;2.00;;;;;24.27;49.53;100699.31;5053914;28;45407;-71
2022/09/09 05:37:27;;;;;;;;;2.67;2.00;;;;;24.47;49.11;100699.72;5060862;28;45557;-71
2022/09/09 05:39:53;;;;;;;;;1.00;1.00;;;;;24.66;48.85;100697.63;5069604;28;45403;-70
2022/09/09 05:42:18;;;;;;;;;2.67;2.00;;;;;24.84;48.31;100695.50;5062889;28;45474;-70
2022/09/09 05:44:44;;;;;;;;;2.67;2.67;;;;;24.99;48.26;100697.47;5062543;28;45840;-71
2022/09/09 05:47:10;;;;;;;;;2.67;1.67;;;;;25.15;47.82;100690.22;5062774;27;45412;-71
2022/09/09 05:49:36;;;;;;;;;4.67;2.00;;;;;25.27;47.86;100691.50;5064591;27;46596;-71
2022/09/09 05:52:03;;;;;;;;;1.67;1.67;;;;;25.38;47.50;100693.78;5062654;28;45461;-70
2022/09/09 05:54:29;;;;;;;;;3.33;2.33;;;;;25.51;47.05;100692.31;5057713;27;45948;-70
2022/09/09 05:56:55;;;;;;;;;3.00;3.00;;;;;25.59;46.96;100694.97;5066175;27;45757;-70
2022/09/09 05:59:20;;;;;;;;;1.33;1.33;;;;;25.72;46.52;100707.97;5056074;27;45451;-71
2022/09/09 06:01:46;;;;;;;;;5.00;2.00;;;;;25.83;46.14;100711.25;5050194;28;45454;-71
2022/09/09 06:04:12;;;;;;;;;1.00;1.00;;;;;25.91;46.30;100708.44;5058499;27;45805;-71
2022/09/09 06:06:39;;;;;;;;;1.67;1.00;;;;;25.97;45.73;100713.16;5071930;27;46404;-70
2022/09/09 06:09:09;;;;;;;;;0.67;0.33;;;;;26.05;46.16;100715.81;5075081;27;45736;-71
2022/09/09 06:11:36;;;;;;;;;3.33;3.33;;;;;26.13;46.08;100720.31;5080426;27;45589;-70
2022/09/09 06:14:02;;;;;;;;;2.00;2.00;;;;;26.20;45.33;100719.56;5090983;27;46248;-71
2022/09/09 06:16:29;;;;;;;;;3.00;2.00;;;;;26.27;45.36;100721.34;5079596;27;45474;-71
2022/09/09 06:18:56;;;;;;;;;1.00;1.00;;;;;26.35;45.13;100725.84;5076370;28;45430;-71
2022/09/09 06:21:33;;;;;;;;;1.33;1.33;;;;;26.37;44.72;100721.09;5074655;28;45486;-77
2022/09/09 06:23:59;;;;;;;;;1.00;1.00;;;;;26.34;45.64;100716.00;5071590;28;47063;-77
2022/09/09 06:26:27;;;;;;;;;1.00;1.00;;;;;26.29;45.38;100719.28;5051545;28;45860;-74
2022/09/09 06:28:54;;;;;;;;;1.33;1.33;;;;;26.28;45.27;100724.94;5063207;28;45396;-75
2022/09/09 06:31:22;;;;;;;;;2.00;2.00;;;;;26.27;45.18;100715.06;5066232;27;46433;-76
2022/09/09 06:33:51;;;;;;;;;2.33;2.33;;;;;26.24;45.14;100720.88;5066050;27;45945;-75
2022/09/09 06:36:19;;;;;;;;;2.67;2.67;;;;;26.22;45.32;100718.31;5073752;28;45433;-74
2022/09/09 06:38:45;;;;;;;;;2.33;2.33;;;;;26.22;44.81;100715.59;5077122;28;45526;-75
2022/09/09 06:41:13;;;;;;;;;2.00;2.00;;;;;26.21;45.47;100711.22;5075376;28;45442;-75
2022/09/09 06:43:39;;;;;;;;;2.00;2.00;;;;;26.24;45.25;100709.97;5054603;28;47321;-74
2022/09/09 06:46:13;;;;;;;;;0.67;0.67;;;;;26.26;44.98;100711.53;5076499;28;46513;-74
2022/09/09 06:48:42;;;;;;;;;3.33;2.00;;;;;26.28;44.83;100711.34;5073634;28;45537;-74
2022/09/09 06:51:22;;;;;;;;;1.00;1.00;;;;;26.28;44.97;100708.63;5075644;28;45479;-74
2022/09/09 06:53:51;;;;;;;;;1.67;1.67;;;;;26.30;44.84;100701.09;5062317;28;46239;-75
2022/09/09 06:56:29;;;;;;;;;4.00;2.00;;;;;26.30;44.48;100706.53;5076280;28;45712;-74
2022/09/09 06:58:56;;;;;;;;;3.33;1.33;;;;;26.29;44.47;100711.13;5071880;28;45467;-72
2022/09/09 07:01:24;;;;;;;;;3.00;2.00;;;;;26.34;44.71;100707.00;5068191;28;45395;-73
2022/09/09 07:03:52;;;;;;;;;3.00;3.00;;;;;26.37;44.36;100712.06;5076512;28;47008;-73
2022/09/09 07:06:26;;;;;;;;;1.67;1.67;;;;;26.36;44.00;100707.66;5076367;28;45542;-74
2022/09/09 07:08:53;;;;;;;;;1.00;1.00;;;;;26.38;44.57;100716.47;5074286;28;45554;-74
2022/09/09 07:11:20;;;;;;;;;3.33;3.33;;;;;26.36;44.37;100715.84;5075904;28;45421;-75
2022/09/09 07:13:45;;;;;;;;;4.33;2.00;;;;;26.37;44.52;100712.06;5090930;27;47012;-75
2022/09/09 07:16:14;;;;;;;;;1.00;1.00;;;;;26.35;44.58;100714.97;5068662;28;45464;-75
2022/09/09 07:18:41;;;;;;;;;2.00;2.00;;;;;26.37;44.41;100715.66;5066759;28;45522;-76
2022/09/09 07:21:08;;;;;;;;;2.33;1.00;;;;;26.40;43.92;100719.88;5076110;28;45450;-75
2022/09/09 07:23:35;;;;;;;;;2.00;2.00;;;;;26.41;43.75;100724.28;5075330;28;45603;-74
2022/09/09 07:26:01;;;;;;;;;1.00;1.00;;;;;26.39;44.36;100721.72;5074153;28;45563;-74
2022/09/09 07:28:28;;;;;;;;;1.00;1.00;;;;;26.36;44.32;100722.09;5087463;27;45476;-75
2022/09/09 07:30:59;;;;;;;;;2.00;2.00;;;;;26.36;44.54;100726.72;5061293;28;45640;-74
2022/09/09 07:33:25;;;;;;;;;2.00;2.00;;;;;26.35;44.09;100728.56;5063103;28;45721;-75
2022/09/09 07:35:52;;;;;;;;;3.00;1.00;;;;;26.36;44.46;100722.09;5066755;28;45706;-74
2022/09/09 07:38:19;;;;;;;;;1.67;1.67;;;;;26.40;43.92;100722.59;5070509;28;45562;-75
2022/09/09 07:40:45;;;;;;;;;1.67;1.67;;;;;26.39;43.88;100724.47;5075586;28;45360;-75
2022/09/09 07:43:11;;;;;;;;;1.67;1.00;;;;;26.39;43.81;100727.19;5075603;28;45466;-74
2022/09/09 07:45:36;;;;;;;;;2.00;2.00;;;;;26.41;43.89;100733.25;5075644;28;45774;-75
2022/09/09 07:48:02;;;;;;;;;1.33;1.00;;;;;26.43;43.77;100728.50;5075056;28;45462;-74
2022/09/09 07:50:28;;;;;;;;;2.00;2.00;;;;;26.45;43.31;100733.75;5075433;28;45518;-75
2022/09/09 07:52:53;;;;;;;;;1.00;1.00;;;;;26.44;43.67;100732.03;5077198;27;45451;-74
2022/09/09 07:55:25;;;;;;;;;1.00;0.33;;;;;26.49;43.80;100734.22;5075885;27;45461;-74
2022/09/09 07:57:51;;;;;;;;;2.67;2.67;;;;;26.52;43.45;100733.84;5069625;28;45705;-75
2022/09/09 08:00:18;;;;;;;;;1.00;1.00;;;;;26.56;43.03;100746.88;5072552;28;45754;-75
2022/09/09 08:02:44;;;;;;;;;1.33;1.33;;;;;26.58;43.27;100742.06;5074408;28;46247;-75
2022/09/09 08:05:09;;;;;;;;;1.00;1.00;;;;;26.60;42.96;100751.94;5072692;28;45391;-75
2022/09/09 08:07:34;;;;;;;;;3.33;3.00;;;;;26.58;42.92;100743.97;5074993;28;45816;-75
2022/09/09 08:10:00;;;;;;;;;3.33;2.00;;;;;26.57;43.11;100753.16;5074731;28;46059;-75
2022/09/09 08:12:25;;;;;;;;;2.00;2.00;;;;;26.57;43.28;100750.44;5075102;28;46040;-76
2022/09/09 08:14:51;;;;;;;;;1.00;1.00;;;;;26.57;42.91;100755.88;5064980;28;45422;-77
2022/09/09 08:17:17;;;;;;;;;1.00;1.00;;;;;26.58;43.14;100766.56;5056120;28;45360;-76
2022/09/09 08:19:42;;;;;;;;;2.00;0.00;;;;;26.60;42.42;100763.66;5076111;28;45483;-76
2022/09/09 08:22:08;;;;;;;;;3.67;1.67;;;;;26.58;43.00;100768.47;5069876;28;47099;-76
2022/09/09 08:24:33;;;;;;;;;1.00;1.00;;;;;26.55;43.04;100761.50;5073645;28;45459;-74
2022/09/09 08:26:59;;;;;;;;;1.67;1.67;;;;;26.56;42.86;100773.22;5071583;28;45471;-74
2022/09/09 08:29:25;;;;;;;;;1.00;1.00;;;;;26.56;42.92;100773.22;5071757;28;45308;-75
2022/09/09 08:31:54;;;;;;;;;2.33;2.00;;;;;26.56;42.95;100767.78;5068590;28;45417;-76
2022/09/09 08:34:20;;;;;;;;;1.33;1.33;;;;;26.56;42.76;100767.78;5074353;28;45562;-77
2022/09/09 08:36:47;;;;;;;;;2.00;2.00;;;;;26.58;42.93;100777.44;5072157;28;45438;-77
2022/09/09 08:39:19;;;;;;;;;2.67;2.67;;;;;26.60;42.41;100766.38;5074779;28;45855;-75
2022/09/09 08:42:02;;;;;;;;;2.00;1.00;;;;;26.59;42.00;100764.69;5073774;28;45478;-76
2022/09/09 08:44:45;;;;;;;;;2.67;1.00;;;;;26.60;42.46;100779.16;5066430;28;45662;-74
2022/09/09 08:47:29;;;;;;;;;1.67;1.67;;;;;26.60;42.05;100774.53;5067000;28;45767;-75
2022/09/09 08:49:55;;;;;;;;;2.00;0.00;;;;;26.63;42.70;100773.31;5074286;28;45423;-74
2022/09/09 08:52:30;;;;;;;;;2.00;2.00;;;;;26.61;41.94;100770.81;5074825;28;47380;-75
2022/09/09 08:55:21;;;;;;;;;1.00;1.00;;;;;26.61;41.96;100781.69;5073587;28;45539;-74
2022/09/09 08:57:51;;;;;;;;;1.00;1.00;;;;;26.60;42.21;100782.72;5074737;28;45673;-75
2022/09/09 09:00:17;;;;;;;;;2.00;2.00;;;;;26.63;42.63;100782.34;5068844;28;45570;-75
2022/09/09 09:03:13;;;;;;;;;0.67;0.67;;;;;26.68;42.35;100774.44;5074729;28;46064;-74
2022/09/09 09:05:51;;;;;;;;;3.67;3.00;;;;;26.72;42.42;100791.25;5073090;28;45548;-75
2022/09/09 09:08:47;;;;;;;;;1.67;1.67;;;;;26.72;41.87;100787.69;5074829;28;45611;-75
2022/09/09 09:11:13;;;;;;;;;1.00;1.00;;;;;26.74;42.33;100793.78;5044462;28;45485;-75
2022/09/09 09:13:49;;;;;;;;;1.33;1.00;;;;;26.74;42.07;100794.63;5073577;28;45910;-75
2022/09/09 09:16:26;;;;;;;;;1.00;1.00;;;;;26.78;42.37;100795.97;5059060;28;45436;-75
2022/09/09 09:18:52;;;;;;;;;1.67;1.67;;;;;26.84;42.14;100808.81;5059857;28;45503;-74
2022/09/09 09:21:39;;;;;;;;;0.67;0.67;;;;;26.87;41.62;100812.16;5074024;28;45427;-76
2022/09/09 09:24:16;;;;;;;;;1.00;1.00;;;;;26.86;41.63;100814.06;5070962;28;46951;-75
2022/09/09 09:26:42;;;;;;;;;1.00;1.00;;;;;26.84;41.99;100814.25;5072098;28;45706;-76
2022/09/09 09:29:12;;;;;;;;;2.00;2.00;;;;;26.83;42.22;100809.84;5065876;28;45494;-76
2022/09/09 09:31:37;;;;;;;;;1.00;1.00;;;;;26.89;42.04;100818.28;5067190;28;45944;-76
2022/09/09 09:34:03;;;;;;;;;2.67;2.67;;;;;26.89;41.56;100823.72;5069326;28;46134;-75
2022/09/09 09:36:42;;;;;;;;;0.67;0.67;;;;;26.89;42.05;100821.00;5064739;28;45345;-76
2022/09/09 09:39:09;;;;;;;;;2.00;1.67;;;;;26.89;41.64;100823.72;5064071;28;45340;-76
2022/09/09 09:41:38;;;;;;;;;2.00;0.67;;;;;26.91;41.51;100817.06;5072866;28;45493;-75
2022/09/09 09:44:05;;;;;;;;;1.00;1.00;;;;;26.91;41.95;100817.06;5073477;28;47609;-76
2022/09/09 09:46:31;;;;;;;;;1.00;1.00;;;;;26.97;41.48;100812.75;5066239;28;45480;-76
2022/09/09 09:49:02;;;;;;;;;1.00;1.00;;;;;27.01;41.29;100827.69;5075019;28;45341;-74
2022/09/09 09:51:30;;;;;;;;;1.67;1.67;;;;;27.06;41.30;100832.56;5070885;28;45577;-75
2022/09/09 09:54:13;;;;;;;;;1.00;1.00;;;;;27.09;41.78;100837.63;5067014;28;45613;-77
2022/09/09 09:56:40;;;;;;;;;2.33;1.00;;;;;27.12;41.57;100845.41;5057890;28;45801;-75
2022/09/09 09:59:19;;;;;;;;;1.67;1.00;;;;;27.14;41.06;100840.63;5078453;28;45396;-75
2022/09/09 10:01:44;;;;;;;;;2.00;2.00;;;;;27.14;41.46;100837.88;5072092;28;45436;-75
2022/09/09 10:04:23;;;;;;;;;2.00;1.67;;;;;27.14;40.83;100845.22;5076566;28;45930;-74
2022/09/09 10:06:49;;;;;;;;;1.00;1.00;;;;;27.14;41.16;100831.63;5074373;28;45409;-76
2022/09/09 10:09:33;;;;;;;;;3.00;1.00;;;;;27.11;40.80;100846.47;5077602;28;45426;-76
2022/09/09 10:12:23;;;;;;;;;2.00;2.00;;;;;27.15;40.87;100847.78;5074928;28;45498;-75
2022/09/09 10:14:48;;;;;;;;;2.00;1.67;;;;;27.17;41.39;100850.28;5065709;28;45274;-74
2022/09/09 10:17:36;;;;;;;;;0.33;0.33;;;;;27.16;41.26;100849.47;5072889;28;45523;-74
2022/09/09 10:20:10;;;;;;;;;1.00;1.00;;;;;27.20;40.53;100855.34;5065349;28;45503;-75
2022/09/09 10:22:36;;;;;;;;;1.00;1.00;;;;;27.20;41.03;100853.50;5054043;28;45663;-75
2022/09/09 10:25:16;;;;;;;;;1.33;1.33;;;;;27.24;40.94;100856.66;5066026;28;46127;-74
2022/09/09 10:27:46;;;;;;;;;1.33;1.33;;;;;27.26;40.57;100851.03;5069002;28;45413;-74
2022/09/09 10:30:18;;;;;;;;;1.00;1.00;;;;;27.30;40.58;100869.53;5055689;28;45515;-75
2022/09/09 10:33:13;;;;;;;;;1.00;1.00;;;;;27.34;40.45;100862.66;5052783;28;45343;-74
2022/09/09 10:35:58;;;;;;;;;1.00;1.00;;;;;27.34;40.12;100859.94;5062907;28;47174;-74
2022/09/09 10:38:43;;;;;;;;;1.00;1.00;;;;;27.31;40.54;100864.94;5061431;28;45507;-73
2022/09/09 10:41:15;;;;;;;;;2.00;1.00;;;;;27.31;40.77;100859.47;5076087;28;45466;-75
2022/09/09 10:44:14;;;;;;;;;4.00;2.00;;;;;27.30;40.03;100847.72;5076816;28;45441;-75
2022/09/09 10:46:57;;;;;;;;;1.33;1.33;;;;;27.31;40.79;100848.56;5076842;28;47034;-76
2022/09/09 10:50:02;;;;;;;;;0.33;0.33;;;;;27.35;40.26;100858.88;5076534;28;45550;-75
2022/09/09 10:52:55;;;;;;;;;2.00;1.67;;;;;27.37;40.26;100850.53;5072748;28;45522;-75
2022/09/09 10:55:25;;;;;;;;;1.00;1.00;;;;;27.31;40.81;100843.13;5076398;28;45409;-75
2022/09/09 10:57:53;;;;;;;;;2.00;0.67;;;;;27.32;40.26;100855.72;5074996;27;46637;-75
2022/09/09 11:00:24;;;;;;;;;0.67;0.67;;;;;27.39;40.11;100858.50;5068038;28;45434;-75
2022/09/09 11:02:55;;;;;;;;;1.67;1.00;;;;;27.41;40.59;100857.28;5057202;28;45585;-76
2022/09/09 11:05:28;;;;;;;;;2.00;2.00;;;;;27.41;40.51;100842.81;5076382;28;45591;-75
2022/09/09 11:08:04;;;;;;;;;1.00;1.00;;;;;27.41;40.02;100848.25;5058921;28;45521;-75
2022/09/09 11:10:58;;;;;;;;;1.00;1.00;;;;;27.38;40.53;100857.66;5075996;28;45510;-75
2022/09/09 11:13:31;;;;;;;;;1.00;1.00;;;;;27.42;39.96;100850.78;5075954;28;45501;-75
2022/09/09 11:16:19;;;;;;;;;2.00;1.00;;;;;27.46;40.00;100843.91;5076129;28;45765;-76
2022/09/09 11:18:47;;;;;;;;;2.00;1.33;;;;;27.52;40.30;100858.66;5076010;28;46136;-78
2022/09/09 11:21:24;;;;;;;;;0.67;0.67;;;;;27.55;40.43;100849.25;5076178;28;45317;-75
2022/09/09 11:23:56;;;;;;;;;3.00;1.00;;;;;27.58;40.36;100857.03;5076503;28;45459;-76
2022/09/09 11:27:02;;;;;;;;;3.67;1.33;;;;;27.61;39.50;100851.25;5076225;28;45274;-76
2022/09/09 11:29:47;;;;;;;;;3.33;2.33;;;;;27.64;39.89;100847.28;5075467;28;45441;-76
2022/09/09 11:32:34;;;;;;;;;1.00;1.00;;;;;27.64;39.57;100836.38;5058070;28;45411;-75
2022/09/09 11:35:32;;;;;;;;;1.00;1.00;;;;;27.65;39.55;100835.31;5064397;28;45404;-76
2022/09/09 11:38:19;;;;;;;;;1.00;1.00;;;;;27.67;39.91;100828.63;5061907;28;45519;-75
2022/09/09 11:40:46;;;;;;;;;0.67;0.00;;;;;27.68;39.47;100829.50;5075830;28;45409;-75
2022/09/09 11:43:15;;;;;;;;;2.00;2.00;;;;;27.69;39.86;100836.63;5076085;28;45420;-75
2022/09/09 11:45:42;;;;;;;;;1.67;1.67;;;;;27.70;39.16;100841.03;5056860;28;45375;-75
2022/09/09 11:48:57;;;;;;;;;1.00;1.00;;;;;27.71;39.81;100848.22;5074726;28;45475;-74
2022/09/09 11:51:22;;;;;;;;;1.00;1.00;;;;;27.70;39.25;100847.34;4973033;28;46224;-76
2022/09/09 11:53:52;;;;;;;;;1.00;1.00;;;;;27.71;39.17;100843.56;4973763;28;45585;-75
2022/09/09 11:56:30;;;;;;;;;1.00;1.00;;;;;27.73;39.26;100848.84;4974221;28;45881;-75
2022/09/09 11:59:19;;;;;;;;;1.67;1.67;;;;;27.72;39.21;100847.97;4974374;28;45543;-74
2022/09/09 12:01:49;;;;;;;;;2.00;1.67;;;;;27.69;41.12;100842.09;4973893;28;45473;-74
2022/09/09 12:04:37;;;;;;;;;0.00;0.00;;;;;27.61;41.97;100843.06;4974000;28;45430;-74
2022/09/09 12:07:08;;;;;;;;;0.00;0.00;;;;;27.56;42.00;100849.06;4970109;28;45430;-74
2022/09/09 12:10:02;;;;;;;;;1.00;1.00;;;;;27.47;42.60;100842.88;4973626;28;45627;-74
2022/09/09 12:12:33;;;;;;;;;0.00;0.00;;;;;27.41;42.74;100849.09;4970164;28;45464;-74
2022/09/09 12:15:01;;;;;;;;;1.00;1.00;;;;;27.36;42.20;100849.69;4973410;28;45793;-74
2022/09/09 12:17:30;;;;;;;;;1.00;0.00;;;;;27.41;41.61;100850.97;4972924;28;45446;-74
2022/09/09 12:20:20;;;;;;;;;1.00;1.00;;;;;27.42;41.45;100850.78;4974064;28;45484;-74
2022/09/09 12:22:58;;;;;;;;;1.00;1.00;;;;;27.48;40.34;100858.22;4972763;28;46181;-74
2022/09/09 12:25:44;;;;;;;;;0.67;0.67;;;;;27.53;40.16;100849.44;5022217;28;45433;-73
2022/09/09 12:28:22;;;;;;;;;2.00;2.00;;;;;27.57;40.35;100855.34;5045280;28;45554;-74
2022/09/09 12:31:17;;;;;;;;;3.00;2.00;;;;;27.59;40.23;100858.75;5073501;28;45468;-74
2022/09/09 12:33:47;;;;;;;;;2.00;1.00;;;;;27.57;39.54;100844.44;5067483;28;46349;-74
2022/09/09 12:36:28;;;;;;;;;1.00;1.00;;;;;27.58;40.02;100849.72;5074834;28;45282;-75
2022/09/09 12:38:56;;;;;;;;;2.00;1.00;;;;;27.57;40.09;100848.03;5062944;28;45428;-74
2022/09/09 12:41:24;;;;;;;;;1.00;1.00;;;;;27.55;39.81;100860.16;5074498;28;45331;-75
2022/09/09 12:43:51;;;;;;;;;2.33;0.00;;;;;27.54;39.71;100850.31;5075545;28;45901;-75
2022/09/09 12:46:36;;;;;;;;;2.67;1.33;;;;;27.53;39.55;100844.00;5074813;28;45653;-74
2022/09/09 12:49:03;;;;;;;;;1.00;1.00;;;;;27.52;39.55;100841.47;5063774;28;45406;-75
2022/09/09 12:51:31;;;;;;;;;1.00;1.00;;;;;27.53;39.61;100843.16;5074646;28;45455;-74
2022/09/09 12:53:58;;;;;;;;;3.00;1.33;;;;;27.50;39.20;100836.19;5075556;28;46079;-75
2022/09/09 12:56:26;;;;;;;;;1.00;1.00;;;;;27.47;39.10;100837.44;5071889;27;46073;-72
2022/09/09 12:58:54;;;;;;;;;0.33;0.00;;;;;27.50;39.71;100833.47;5073298;28;45594;-72
2022/09/09 13:01:26;;;;;;;;;1.00;1.00;;;;;27.51;39.41;100837.91;5073700;28;45400;-73
2022/09/09 13:03:52;;;;;;;;;1.67;1.33;;;;;27.50;38.93;100836.19;5073903;28;45442;-73
2022/09/09 13:06:27;;;;;;;;;1.00;1.00;;;;;27.50;39.07;100841.66;5074059;28;45820;-72
2022/09/09 13:08:54;;;;;;;;;3.00;1.00;;;;;27.49;38.87;100840.81;5073989;28;45454;-72
2022/09/09 13:11:50;;;;;;;;;1.00;1.00;;;;;27.48;38.94;100830.09;5073664;28;45910;-73
2022/09/09 13:14:23;;;;;;;;;1.00;1.00;;;;;27.48;39.01;100844.59;5073024;28;45594;-73
2022/09/09 13:16:58;;;;;;;;;1.67;1.00;;;;;27.48;39.38;100844.59;5073670;28;45493;-73
2022/09/09 13:19:27;;;;;;;;;1.67;0.00;;;;;27.48;39.38;100857.38;5074256;28;45422;-73
2022/09/09 13:21:53;;;;;;;;;1.33;1.00;;;;;27.47;38.86;100855.69;5071258;28;45530;-73
2022/09/09 13:24:33;;;;;;;;;1.00;1.00;;;;;27.44;38.81;100854.19;5073966;28;46205;-73
2022/09/09 13:27:02;;;;;;;;;1.67;0.67;;;;;27.44;38.88;100872.41;5076589;28;45509;-73
2022/09/09 13:29:28;;;;;;;;;1.00;1.00;;;;;27.41;38.88;100884.53;5057590;28;45685;-73
2022/09/09 13:32:02;;;;;;;;;1.33;1.33;;;;;27.40;38.81;100890.19;5072914;28;45471;-72
2022/09/09 13:34:35;;;;;;;;;0.00;0.00;;;;;27.38;39.50;100893.09;5077448;28;45348;-73
2022/09/09 15:43:13;;;;;;;;;2.00;2.00;;;;;23.05;49.52;100907.41;4975166;27;45909;-75
2022/09/09 15:45:39;;;;;;;;;1.00;1.00;;;;;23.22;49.42;100902.94;4964068;28;45529;-71
2022/09/09 15:48:04;;;;;;;;;2.33;2.33;;;;;23.44;49.53;100908.81;4969639;28;45395;-73
2022/09/09 15:50:32;;;;;;;;;2.33;2.33;;;;;23.66;49.17;100906.50;4969785;28;45629;-73
2022/09/09 15:52:59;;;;;;;;;2.33;2.33;;;;;23.88;48.61;100909.59;4965614;28;46237;-73
2022/09/09 15:55:25;;;;;;;;;2.00;2.00;;;;;24.11;48.22;100912.53;4961383;28;45510;-73
2022/09/09 15:57:52;;;;;;;;;1.67;1.67;;;;;24.32;47.89;100913.91;4965111;28;45501;-73
2022/09/09 16:00:18;;;;;;;;;3.00;3.00;;;;;24.54;47.55;100916.94;4991704;27;45483;-72
2022/09/09 16:02:43;;;;;;;;;3.33;2.33;;;;;24.71;47.14;100915.91;4959066;28;46101;-73
2022/09/09 16:05:09;;;;;;;;;2.67;2.00;;;;;24.91;46.92;100914.69;4966475;28;45402;-73
2022/09/09 16:07:35;;;;;;;;;1.00;1.00;;;;;25.10;46.48;100908.84;4964596;27;45446;-72
2022/09/09 16:10:00;;;;;;;;;2.00;2.00;;;;;25.26;46.37;100910.66;4960141;28;45388;-73
2022/09/09 16:12:26;;;;;;;;;1.33;1.33;;;;;25.41;45.73;100919.97;4971121;28;46281;-73
2022/09/09 16:14:51;;;;;;;;;1.00;1.00;;;;;25.52;45.72;100908.69;4995717;28;45428;-73
2022/09/09 16:17:18;;;;;;;;;2.67;1.00;;;;;25.62;45.50;100920.22;4993144;28;45554;-73
2022/09/09 16:19:45;;;;;;;;;3.67;2.33;;;;;25.72;45.18;100925.44;4959549;28;45288;-73
2022/09/09 16:22:11;;;;;;;;;2.00;2.00;;;;;25.79;45.33;100926.38;4959067;28;46788;-73
2022/09/09 16:24:36;;;;;;;;;1.00;1.00;;;;;25.87;45.05;100924.66;4956225;28;46129;-73
2022/09/09 16:27:01;;;;;;;;;2.00;2.00;;;;;25.97;45.01;100930.69;4962598;28;45646;-73
2022/09/09 16:29:27;;;;;;;;;1.67;1.33;;;;;26.07;44.91;100930.44;4967326;28;45788;-73
2022/09/09 16:31:53;;;;;;;;;2.00;2.00;;;;;26.13;44.28;100915.28;5009304;28;46276;-73
2022/09/09 16:34:19;;;;;;;;;3.33;0.67;;;;;26.18;44.00;100927.31;4961617;28;45422;-73
2022/09/09 16:36:46;;;;;;;;;1.00;1.00;;;;;26.26;44.42;100912.84;4962807;28;45418;-73
2022/09/09 16:39:14;;;;;;;;;1.00;1.00;;;;;26.31;44.13;100924.00;4957533;28;45456;-73
2022/09/09 16:41:41;;;;;;;;;2.00;2.00;;;;;26.36;43.73;100915.28;5041933;28;46105;-74
2022/09/09 16:44:10;;;;;;;;;1.67;1.67;;;;;26.41;44.12;100923.75;4991791;28;45492;-74
2022/09/09 16:46:38;;;;;;;;;1.00;1.00;;;;;26.46;43.40;100933.22;4967331;28;45429;-73
2022/09/09 16:49:06;;;;;;;;;2.67;1.67;;;;;26.51;43.66;100922.63;5005553;28;45522;-74
2022/09/09 16:51:38;;;;;;;;;2.00;1.00;;;;;26.54;43.09;100928.56;4995884;28;46110;-74
2022/09/09 16:54:08;;;;;;;;;1.67;1.67;;;;;26.58;43.45;100927.16;4945626;28;45398;-74
2022/09/09 16:56:41;;;;;;;;;5.67;1.00;;;;;26.61;43.04;100931.41;4953580;28;45501;-74
2022/09/09 16:59:11;;;;;;;;;3.00;2.00;;;;;26.62;43.52;100930.38;4951023;28;45603;-74
2022/09/09 17:01:40;;;;;;;;;3.00;3.00;;;;;26.64;43.41;100922.03;4949608;28;45981;-74
2022/09/09 17:04:08;;;;;;;;;4.33;2.00;;;;;26.66;42.88;100925.41;4950991;28;45359;-73
2022/09/09 17:06:36;;;;;;;;;2.00;2.00;;;;;26.66;43.09;100928.13;4967306;28;45710;-74
2022/09/09 17:09:05;;;;;;;;;1.00;1.00;;;;;26.66;43.06;100926.25;4954758;28;45385;-74
2022/09/09 17:11:30;;;;;;;;;3.33;1.33;;;;;26.68;43.03;100929.63;4940352;28;45355;-74
2022/09/09 17:13:57;;;;;;;;;1.33;0.67;;;;;26.71;42.96;100931.13;4953985;28;45400;-73
2022/09/09 17:16:27;;;;;;;;;1.00;1.00;;;;;26.72;43.09;100935.53;4954145;28;45452;-73
2022/09/09 17:18:54;;;;;;;;;1.33;1.00;;;;;26.74;42.58;100921.75;4954459;28;45488;-73
2022/09/09 17:21:22;;;;;;;;;2.00;1.67;;;;;26.76;42.87;100920.53;4953113;28;46023;-73
2022/09/09 17:23:47;;;;;;;;;1.00;1.00;;;;;26.75;42.96;100918.84;4954293;28;45396;-73
2022/09/09 17:26:15;;;;;;;;;1.00;1.00;;;;;26.78;42.59;100923.94;4953870;28;45418;-73
2022/09/09 17:28:42;;;;;;;;;4.33;2.33;;;;;26.81;42.83;100923.53;4954561;28;45465;-73
2022/09/09 17:31:09;;;;;;;;;2.00;1.00;;;;;26.87;42.50;100934.72;4954347;28;45340;-74
2022/09/09 17:33:38;;;;;;;;;2.00;2.00;;;;;26.90;42.21;100942.50;4954495;28;45351;-74
2022/09/09 17:36:11;;;;;;;;;2.00;2.00;;;;;26.90;42.56;100937.06;4981882;28;45842;-74
2022/09/09 17:38:37;;;;;;;;;1.33;1.33;;;;;26.89;42.01;100938.94;4954073;28;45740;-74
2022/09/09 17:41:16;;;;;;;;;2.33;1.00;;;;;26.89;42.10;100941.66;4953882;28;45920;-73
2022/09/09 17:43:42;;;;;;;;;1.00;1.00;;;;;26.86;42.40;100936.59;5014486;28;45391;-74
2022/09/09 17:46:21;;;;;;;;;1.33;1.00;;;;;26.87;42.23;100948.31;4949443;28;45548;-74
2022/09/09 17:48:47;;;;;;;;;0.67;0.67;;;;;26.87;42.21;100953.78;4950804;28;45490;-73
2022/09/09 17:51:15;;;;;;;;;1.00;1.00;;;;;26.86;41.87;100949.38;4945995;28;47220;-73
2022/09/09 17:53:46;;;;;;;;;1.00;1.00;;;;;26.83;42.41;100942.41;4948678;28;45578;-74
2022/09/09 17:56:14;;;;;;;;;1.67;1.67;;;;;26.84;42.36;100955.84;4953579;28;45554;-74
2022/09/09 17:58:40;;;;;;;;;1.00;1.00;;;;;26.84;42.43;100955.84;4954099;28;45485;-73
2022/09/09 18:01:11;;;;;;;;;1.00;1.00;;;;;26.83;42.53;100950.56;4953968;28;46025;-73
2022/09/09 18:03:39;;;;;;;;;1.00;1.00;;;;;26.81;42.47;100961.66;4954148;28;45474;-73
2022/09/09 18:06:07;;;;;;;;;4.00;3.00;;;;;26.81;42.50;100972.53;4944026;28;45526;-74
2022/09/09 18:08:33;;;;;;;;;4.00;2.33;;;;;26.80;41.67;100959.97;4944334;28;45681;-75
2022/09/09 18:11:00;;;;;;;;;1.33;1.33;;;;;26.79;42.08;100960.16;4947882;28;46738;-74
2022/09/09 18:13:25;;;;;;;;;1.67;1.67;;;;;26.74;42.06;100949.81;4945964;28;45560;-74
2022/09/09 18:15:51;;;;;;;;;3.00;2.00;;;;;26.76;42.54;100955.91;4954255;28;45343;-72
2022/09/09 18:18:16;;;;;;;;;1.33;1.33;;;;;26.77;42.44;100963.06;4956335;28;45377;-73
2022/09/09 18:20:41;;;;;;;;;1.33;0.00;;;;;26.73;42.54;100953.56;4954100;28;46278;-73
2022/09/09 18:23:07;;;;;;;;;3.00;2.00;;;;;26.75;42.89;100959.69;4958239;28;45450;-85
2022/09/09 18:25:40;;;;;;;;;5.67;3.33;;;;;26.82;42.78;100968.78;4951875;28;46776;-85
2022/09/09 18:28:07;;;;;;;;;2.00;2.00;;;;;26.92;42.60;100967.66;4948145;28;45459;-88
2022/09/09 18:30:33;;;;;;;;;1.00;1.00;;;;;26.98;42.35;100972.44;4948034;28;47436;-92
2022/09/09 18:32:58;;;;;;;;;4.33;3.00;;;;;27.05;42.71;100967.91;4974404;28;45530;-91
2022/09/09 18:35:24;;;;;;;;;1.67;1.67;;;;;27.12;41.92;100978.91;4990798;28;45626;-88
2022/09/09 18:37:49;;;;;;;;;1.67;1.00;;;;;27.19;42.29;100989.91;4980870;28;45475;-84
2022/09/09 18:40:14;;;;;;;;;2.00;2.00;;;;;27.24;41.59;100998.34;4998363;28;45480;-80
2022/09/09 18:42:40;;;;;;;;;1.00;1.00;;;;;27.26;41.82;100985.38;5017506;28;45396;-81
2022/09/09 18:45:05;;;;;;;;;1.00;1.00;;;;;27.30;41.03;100988.59;5041715;28;45482;-80
2022/09/09 18:47:31;;;;;;;;;3.67;2.00;;;;;27.30;41.47;100988.59;5041641;28;45534;-81
2022/09/09 18:49:56;;;;;;;;;1.00;1.00;;;;;27.29;41.42;100997.78;4998154;28;51588;-81
2022/09/09 18:52:21;;;;;;;;;1.33;0.00;;;;;27.25;41.60;101000.03;5014334;28;45392;-81